createdAt,value
2022-08-19T22:04:54.092Z,85.57
2022-08-19T22:07:21.282Z,85.96
2022-08-19T22:09:48.390Z,86.63
2022-08-19T22:12:23.953Z,86.11
2022-08-19T22:14:51.671Z,85.72
2022-08-19T22:17:18.425Z,86.33
2022-08-19T22:19:45.003Z,86.09
2022-08-19T22:22:11.913Z,87.11
2022-08-19T22:24:38.565Z,86.58
2022-08-19T22:27:06.759Z,86.55
2022-08-19T22:29:36.568Z,87.15
2022-08-19T22:32:26.674Z,86.23
2022-08-19T22:34:51.848Z,85.48
2022-08-19T22:37:18.483Z,85.78
2022-08-19T22:39:45.406Z,86.62
2022-08-19T22:42:12.954Z,87.60
2022-08-19T22:44:40.035Z,87.45
2022-08-19T22:47:06.663Z,87.52
2022-08-19T22:49:33.227Z,87.67
2022-08-19T22:52:17.619Z,88.75
2022-08-19T22:54:45.420Z,88.31
2022-08-19T22:57:12.110Z,90.23
2022-08-19T22:59:38.928Z,89.44
2022-08-19T23:02:05.528Z,89.31
2022-08-19T23:04:37.553Z,88.87
2022-08-19T23:07:05.036Z,88.46
2022-08-19T23:09:31.721Z,88.83
2022-08-19T23:11:59.266Z,89.05
2022-08-19T23:14:25.979Z,88.76
2022-08-19T23:16:54.989Z,89.66
2022-08-19T23:19:25.086Z,88.47
2022-08-19T23:21:52.582Z,88.62
2022-08-19T23:24:19.215Z,88.44
2022-08-19T23:27:04.586Z,87.83
2022-08-19T23:29:49.681Z,87.99
2022-08-19T23:32:17.062Z,87.94
2022-08-19T23:34:44.079Z,87.83
2022-08-19T23:37:10.626Z,89.64
2022-08-19T23:39:37.305Z,90.05
2022-08-19T23:42:07.299Z,90.02
2022-08-19T23:44:33.919Z,90.35
2022-08-19T23:47:17.780Z,90.43
2022-08-19T23:49:44.868Z,91.38
2022-08-19T23:52:11.450Z,90.67
2022-08-19T23:54:42.950Z,89.80
2022-08-19T23:57:14.149Z,90.11
2022-08-19T23:59:45.602Z,91.14
